createdAt,value
2023-08-23T00:01:04.063Z,15.95
2023-08-23T00:03:37.774Z,15.73
2023-08-23T00:06:04.736Z,18.67
2023-08-23T00:08:31.700Z,17.88
2023-08-23T00:10:58.701Z,18.45
2023-08-23T00:13:25.601Z,18.90
2023-08-23T00:15:52.562Z,18.23
2023-08-23T00:18:19.802Z,17.65
2023-08-23T00:20:46.763Z,20.15
2023-08-23T00:23:13.901Z,17.63
2023-08-23T00:25:40.866Z,17.17
2023-08-23T00:28:13.838Z,16.50
2023-08-23T00:30:55.831Z,18.35
2023-08-23T00:33:23.304Z,16.95
2023-08-23T00:35:50.738Z,18.70
2023-08-23T00:38:17.762Z,16.85
2023-08-23T00:40:45.079Z,17.15
2023-08-23T00:43:12.512Z,18.48
2023-08-23T00:45:41.361Z,15.77
2023-08-23T00:48:09.974Z,15.98
2023-08-23T00:50:38.238Z,16.52
2023-08-23T00:53:08.039Z,15.73
2023-08-23T00:55:36.615Z,16.13
2023-08-23T00:58:04.215Z,15.77
2023-08-23T01:03:12.646Z,16.38
2023-08-23T01:05:54.693Z,16.52
2023-08-23T01:08:51.919Z,16.17
2023-08-23T01:11:34.541Z,16.52
2023-08-23T01:14:07.944Z,16.15
2023-08-23T01:16:35.750Z,17.67
2023-08-23T01:19:21.134Z,18.02
2023-08-23T01:21:51.620Z,16.58
2023-08-23T01:24:19.056Z,16.55
2023-08-23T01:26:46.084Z,17.10
2023-08-23T01:29:13.151Z,16.05
2023-08-23T01:31:45.788Z,17.75
2023-08-23T01:34:24.438Z,17.63
2023-08-23T01:36:53.944Z,17.33
2023-08-23T01:39:24.116Z,17.13
2023-08-23T01:41:52.146Z,15.43
2023-08-23T01:44:19.163Z,15.77
2023-08-23T01:46:46.208Z,14.60
2023-08-23T01:49:13.408Z,14.90
2023-08-23T01:51:40.331Z,14.88
2023-08-23T01:54:07.268Z,15.63
2023-08-23T01:56:34.292Z,15.65
2023-08-23T01:59:01.306Z,14.07
2023-08-23T02:01:28.309Z,14.93
2023-08-23T02:03:55.752Z,13.60
2023-08-23T02:06:22.724Z,14.85
2023-08-23T02:08:49.681Z,14.32
2023-08-23T02:11:17.984Z,13.85
2023-08-23T02:13:44.823Z,13.85
2023-08-23T02:16:11.787Z,15.60
2023-08-23T02:18:39.164Z,14.70
2023-08-23T02:21:06.140Z,14.73
2023-08-23T02:23:33.069Z,16.13
2023-08-23T02:26:00.045Z,15.63
2023-08-23T02:28:27.032Z,14.68
2023-08-23T02:30:54.034Z,16.13
2023-08-23T02:33:24.217Z,15.90
2023-08-23T02:35:51.087Z,16.73
2023-08-23T02:38:18.180Z,15.55
2023-08-23T02:40:45.162Z,15.43
2023-08-23T02:43:12.152Z,16.38
2023-08-23T02:45:40.474Z,16.75
2023-08-23T02:48:12.142Z,15.50
2023-08-23T02:50:39.159Z,16.30
2023-08-23T02:53:06.035Z,15.45
2023-08-23T02:55:37.894Z,16.20
2023-08-23T02:58:05.230Z,17.05
2023-08-23T03:00:32.412Z,17.02
2023-08-23T03:02:59.562Z,16.48
2023-08-23T03:05:26.610Z,16.13
2023-08-23T03:07:53.471Z,16.05
2023-08-23T03:10:20.908Z,16.13
2023-08-23T03:12:48.102Z,16.20
2023-08-23T03:15:15.187Z,16.90
2023-08-23T03:17:42.164Z,15.95
2023-08-23T03:20:09.350Z,16.95
2023-08-23T03:22:36.225Z,16.02
2023-08-23T03:25:04.721Z,16.63
2023-08-23T03:27:31.598Z,16.77
2023-08-23T03:29:58.657Z,16.02
2023-08-23T03:32:25.650Z,16.52
2023-08-23T03:34:52.628Z,16.80
2023-08-23T03:37:19.636Z,16.80
2023-08-23T03:39:48.118Z,16.40
2023-08-23T03:42:16.289Z,16.70
2023-08-23T03:44:43.139Z,17.58
2023-08-23T03:47:10.125Z,16.50
2023-08-23T03:49:37.378Z,14.57
2023-08-23T03:52:10.838Z,17.00
2023-08-23T03:54:37.943Z,16.20
2023-08-23T03:57:04.870Z,16.25
2023-08-23T03:59:31.909Z,16.42
2023-08-23T04:15:01.172Z,16.60
2023-08-23T05:25:31.973Z,14.60
2023-08-23T05:27:58.875Z,14.65
2023-08-23T05:30:25.764Z,15.07
2023-08-23T05:32:52.645Z,13.77
2023-08-23T05:35:23.803Z,14.50
2023-08-23T05:37:53.318Z,15.27
2023-08-23T05:40:23.483Z,14.77
2023-08-23T05:42:52.891Z,13.57
2023-08-23T05:45:19.973Z,13.38
2023-08-23T05:47:48.013Z,12.85
2023-08-23T05:50:15.157Z,11.95
2023-08-23T05:52:42.062Z,12.98
2023-08-23T05:55:10.004Z,12.90
2023-08-23T05:57:36.912Z,11.90
2023-08-23T06:00:04.322Z,12.95
2023-08-23T06:02:31.376Z,11.85
2023-08-23T06:04:58.914Z,13.93
2023-08-23T06:07:25.926Z,12.65
2023-08-23T06:09:52.835Z,12.75
2023-08-23T06:12:20.675Z,12.50
2023-08-23T06:14:50.245Z,12.73
2023-08-23T06:17:18.678Z,11.88
2023-08-23T06:19:45.509Z,12.32
2023-08-23T06:22:12.342Z,12.70
2023-08-23T06:24:39.269Z,12.85
2023-08-23T06:27:06.155Z,13.43
2023-08-23T06:29:33.029Z,13.48
2023-08-23T06:32:00.202Z,12.73
2023-08-23T06:34:27.194Z,11.43
2023-08-23T06:36:54.088Z,11.85
2023-08-23T06:39:32.774Z,11.88
2023-08-23T06:42:00.658Z,11.52
2023-08-23T06:44:27.676Z,11.40
2023-08-23T06:46:54.567Z,12.07
2023-08-23T06:49:21.514Z,11.48
2023-08-23T06:51:48.448Z,11.93
2023-08-23T06:54:15.471Z,11.77
2023-08-23T06:56:42.510Z,11.13
2023-08-23T06:59:09.723Z,10.60
2023-08-23T07:01:36.720Z,11.15
2023-08-23T07:04:03.696Z,11.45
2023-08-23T07:06:32.490Z,11.38
2023-08-23T07:08:59.580Z,11.45
2023-08-23T07:11:26.429Z,11.10
2023-08-23T07:13:53.450Z,11.52
2023-08-23T07:16:20.331Z,10.73
2023-08-23T07:18:47.304Z,11.40
2023-08-23T07:21:14.267Z,11.10
2023-08-23T07:23:43.528Z,11.45
2023-08-23T07:26:10.726Z,10.43
2023-08-23T07:28:42.237Z,11.15
2023-08-23T07:31:09.306Z,10.18
2023-08-23T07:33:36.352Z,10.57
2023-08-23T07:36:04.115Z,11.95
2023-08-23T07:38:33.660Z,10.65
2023-08-23T07:41:04.434Z,10.77
2023-08-23T07:43:32.019Z,11.32
2023-08-23T07:46:01.201Z,12.98
2023-08-23T07:48:30.037Z,11.35
2023-08-23T07:50:58.258Z,10.27
2023-08-23T07:53:25.365Z,10.52
2023-08-23T07:55:52.366Z,11.20
2023-08-23T07:58:19.231Z,17.77
2023-08-23T08:00:46.553Z,12.73
2023-08-23T08:03:13.405Z,10.75
2023-08-23T08:05:40.438Z,11.18
2023-08-23T08:08:10.071Z,11.35
2023-08-23T08:10:37.998Z,10.68
2023-08-23T08:13:05.648Z,11.30
2023-08-23T08:15:33.280Z,10.93
2023-08-23T08:18:00.409Z,10.55
2023-08-23T08:20:29.579Z,10.43
2023-08-23T08:22:56.697Z,10.35
2023-08-23T08:25:23.722Z,11.35
2023-08-23T08:27:52.345Z,11.10
2023-08-23T08:30:19.779Z,11.25
2023-08-23T08:32:46.861Z,10.43
2023-08-23T08:35:13.872Z,11.57
2023-08-23T08:37:41.010Z,11.30
2023-08-23T08:40:09.161Z,11.07
2023-08-23T08:42:36.278Z,11.20
2023-08-23T08:45:03.874Z,11.40
2023-08-23T08:47:30.777Z,10.38
2023-08-23T08:49:57.886Z,10.90
2023-08-23T08:52:28.378Z,10.70
2023-08-23T08:54:58.436Z,9.95
2023-08-23T08:57:28.699Z,9.85
2023-08-23T08:59:58.230Z,10.55
2023-08-23T09:02:29.014Z,10.63
2023-08-23T09:04:57.247Z,9.32
2023-08-23T09:07:24.791Z,9.25
2023-08-23T09:09:52.062Z,8.95
2023-08-23T09:12:20.771Z,10.15
2023-08-23T09:14:51.864Z,9.68
2023-08-23T09:17:22.475Z,11.05
2023-08-23T09:19:49.784Z,9.50
2023-08-23T09:22:23.337Z,9.88
2023-08-23T09:24:50.715Z,8.88
2023-08-23T09:27:34.747Z,9.05
2023-08-23T09:30:05.602Z,7.80
2023-08-23T09:32:32.747Z,7.95
2023-08-23T09:35:10.624Z,8.10
2023-08-23T09:37:43.578Z,8.02
2023-08-23T09:40:37.001Z,7.90
2023-08-23T09:43:04.316Z,7.30
2023-08-23T09:45:31.479Z,6.70
2023-08-23T09:48:01.387Z,7.45
2023-08-23T09:50:28.370Z,6.88
2023-08-23T09:53:01.832Z,7.18
2023-08-23T09:55:31.010Z,7.40
2023-08-23T09:57:58.637Z,7.60
2023-08-23T10:00:27.103Z,7.32
2023-08-23T10:02:55.177Z,6.78
2023-08-23T10:05:24.677Z,7.65
2023-08-23T10:07:55.701Z,7.35
2023-08-23T10:10:22.761Z,7.65
2023-08-23T10:12:57.254Z,7.82
2023-08-23T10:15:31.399Z,7.43
2023-08-23T10:18:00.860Z,7.07
2023-08-23T10:20:28.096Z,6.50
2023-08-23T10:22:57.693Z,8.00
2023-08-23T10:25:24.708Z,8.00
2023-08-23T10:27:56.315Z,6.97
2023-08-23T10:30:28.398Z,7.00
2023-08-23T10:33:07.943Z,7.15
2023-08-23T10:35:38.172Z,7.45
2023-08-23T10:38:09.180Z,7.28
2023-08-23T10:40:38.267Z,6.65
2023-08-23T10:43:14.053Z,8.00
2023-08-23T10:46:03.710Z,7.72
2023-08-23T10:48:32.003Z,6.68
2023-08-23T10:50:59.116Z,7.00
2023-08-23T10:53:28.609Z,7.43
2023-08-23T10:55:58.884Z,7.18
2023-08-23T10:58:26.261Z,7.00
2023-08-23T11:00:55.185Z,6.47
2023-08-23T11:03:23.912Z,6.43
2023-08-23T11:05:50.874Z,6.40
2023-08-23T11:08:17.845Z,6.40
2023-08-23T11:10:44.820Z,6.97
2023-08-23T11:13:13.027Z,6.93
2023-08-23T11:15:42.139Z,6.85
2023-08-23T11:18:09.239Z,6.47
2023-08-23T11:20:36.292Z,6.22
2023-08-23T11:23:04.455Z,6.72
2023-08-23T11:25:33.332Z,6.45
2023-08-23T11:28:00.336Z,6.90
2023-08-23T11:30:28.201Z,8.98
2023-08-23T11:32:58.034Z,6.60
2023-08-23T11:35:25.116Z,6.65
2023-08-23T11:37:54.191Z,6.47
2023-08-23T11:40:24.006Z,6.75
2023-08-23T11:42:50.928Z,6.40
2023-08-23T11:45:17.859Z,6.47
2023-08-23T11:47:44.866Z,6.65
2023-08-23T11:50:12.110Z,6.10
2023-08-23T11:52:39.139Z,6.57
2023-08-23T11:55:06.463Z,6.30
2023-08-23T11:57:36.831Z,6.13
2023-08-23T12:04:32.659Z,7.32
2023-08-23T12:06:59.593Z,6.90
2023-08-23T12:09:26.859Z,7.20
2023-08-23T12:11:54.506Z,6.72
2023-08-23T12:14:21.566Z,7.07
2023-08-23T12:16:48.587Z,6.82
2023-08-23T12:19:29.350Z,7.30
2023-08-23T12:21:57.978Z,7.00
2023-08-23T12:24:26.119Z,7.10
2023-08-23T12:26:53.187Z,6.25
2023-08-23T12:29:20.181Z,6.03
2023-08-23T12:31:47.392Z,6.90
2023-08-23T12:34:14.254Z,6.90
2023-08-23T12:36:41.151Z,6.35
2023-08-23T12:39:08.108Z,6.18
2023-08-23T12:41:36.087Z,7.38
2023-08-23T12:44:03.523Z,6.68
2023-08-23T12:46:30.964Z,6.35
2023-08-23T12:48:57.897Z,6.65
2023-08-23T12:51:25.998Z,6.55
2023-08-23T12:53:56.863Z,7.10
2023-08-23T12:56:24.852Z,7.18
2023-08-23T12:58:53.951Z,6.97
2023-08-23T13:01:21.006Z,6.82
2023-08-23T13:03:48.292Z,7.45
2023-08-23T13:06:15.148Z,7.22
2023-08-23T13:08:42.308Z,6.75
2023-08-23T13:11:09.936Z,6.32
2023-08-23T13:13:37.675Z,6.50
2023-08-23T13:16:04.870Z,6.28
2023-08-23T13:18:32.942Z,6.72
2023-08-23T13:21:03.892Z,6.35
2023-08-23T13:23:30.815Z,6.68
2023-08-23T13:25:58.649Z,7.35
2023-08-23T13:28:26.671Z,6.70
2023-08-23T13:30:57.759Z,7.32
2023-08-23T13:33:34.141Z,8.10
2023-08-23T13:36:04.216Z,7.85
2023-08-23T13:38:31.126Z,7.75
2023-08-23T13:41:03.143Z,7.15
2023-08-23T13:43:30.155Z,7.03
2023-08-23T13:45:59.945Z,7.07
2023-08-23T13:48:26.871Z,7.28
2023-08-23T13:50:53.765Z,7.93
2023-08-23T13:53:25.855Z,7.45
2023-08-23T13:55:52.693Z,7.90
2023-08-23T13:58:19.626Z,7.47
2023-08-23T14:00:46.495Z,6.80
2023-08-23T14:03:13.911Z,7.35
2023-08-23T14:05:40.867Z,7.20
2023-08-23T14:08:07.810Z,7.22
2023-08-23T14:10:36.801Z,7.05
2023-08-23T14:13:03.759Z,7.60
2023-08-23T14:15:33.083Z,7.57
2023-08-23T14:17:59.930Z,7.13
2023-08-23T14:20:26.881Z,6.45
2023-08-23T14:22:55.485Z,7.32
2023-08-23T14:25:22.373Z,7.72
2023-08-23T14:27:49.485Z,7.40
2023-08-23T14:30:16.575Z,7.03
2023-08-23T14:32:49.589Z,7.78
2023-08-23T14:35:20.197Z,7.53
2023-08-23T14:37:50.634Z,7.20
2023-08-23T14:40:22.044Z,7.93
2023-08-23T14:42:48.933Z,7.22
2023-08-23T14:45:17.714Z,7.30
2023-08-23T14:47:47.176Z,6.78
2023-08-23T14:50:14.222Z,6.68
2023-08-23T14:52:43.504Z,7.20
2023-08-23T14:55:11.900Z,7.45
2023-08-23T14:57:38.921Z,7.97
2023-08-23T15:00:06.616Z,7.55
2023-08-23T15:02:35.294Z,7.15
2023-08-23T15:05:03.644Z,8.52
2023-08-23T15:07:30.810Z,8.25
2023-08-23T15:09:57.772Z,8.23
2023-08-23T15:12:24.708Z,7.85
2023-08-23T15:14:51.604Z,7.57
2023-08-23T15:17:18.509Z,7.22
2023-08-23T15:19:47.312Z,7.80
2023-08-23T15:22:16.404Z,7.15
2023-08-23T15:24:45.712Z,7.38
2023-08-23T15:27:12.807Z,9.27
2023-08-23T15:29:49.385Z,9.05
2023-08-23T15:32:28.185Z,8.68
2023-08-23T15:34:57.536Z,7.75
2023-08-23T15:37:26.318Z,8.50
2023-08-23T15:39:56.774Z,8.82
2023-08-23T15:42:24.919Z,9.30
2023-08-23T15:44:51.786Z,8.85
2023-08-23T15:47:19.302Z,9.30
2023-08-23T15:49:46.196Z,8.75
2023-08-23T15:52:13.078Z,7.85
2023-08-23T15:54:40.029Z,8.52
2023-08-23T15:57:06.905Z,7.55
2023-08-23T15:59:34.189Z,7.85
2023-08-23T16:02:02.269Z,8.70
2023-08-23T16:04:37.255Z,8.13
2023-08-23T16:07:04.826Z,7.93
2023-08-23T16:09:32.837Z,9.00
2023-08-23T16:12:01.584Z,8.82
2023-08-23T16:14:29.028Z,9.10
2023-08-23T16:16:58.393Z,8.50
2023-08-23T16:19:25.307Z,9.50
2023-08-23T16:21:55.585Z,8.00
2023-08-23T16:24:23.023Z,7.70
2023-08-23T16:26:57.101Z,8.38
2023-08-23T16:29:24.457Z,8.43
2023-08-23T16:31:51.543Z,8.13
2023-08-23T16:34:18.567Z,8.30
2023-08-23T16:36:45.448Z,8.20
2023-08-23T16:39:12.910Z,8.85
2023-08-23T16:41:39.801Z,7.85
2023-08-23T16:44:06.759Z,9.57
2023-08-23T16:46:34.054Z,8.80
2023-08-23T16:49:01.067Z,8.95
2023-08-23T16:51:28.059Z,8.75
2023-08-23T16:53:56.019Z,9.77
2023-08-23T16:56:24.432Z,8.50
2023-08-23T16:58:51.458Z,8.38
2023-08-23T17:01:18.351Z,8.80
2023-08-23T17:03:45.751Z,9.70
2023-08-23T17:06:13.114Z,10.10
2023-08-23T17:08:42.833Z,9.90
2023-08-23T17:11:09.729Z,12.85
2023-08-23T17:13:36.647Z,11.20
2023-08-23T17:16:03.705Z,11.90
2023-08-23T17:18:30.605Z,12.52
2023-08-23T17:21:03.920Z,10.80
2023-08-23T17:23:31.897Z,10.82
2023-08-23T17:25:58.840Z,13.05
2023-08-23T17:28:27.917Z,10.85
2023-08-23T17:30:54.829Z,10.70
2023-08-23T17:33:22.038Z,11.30
2023-08-23T17:35:49.001Z,12.18
2023-08-23T17:38:15.968Z,10.98
2023-08-23T17:40:42.797Z,12.57
2023-08-23T17:43:09.904Z,16.45
2023-08-23T17:45:36.825Z,13.50
2023-08-23T17:48:04.076Z,14.10
2023-08-23T17:50:31.068Z,14.45
2023-08-23T17:52:59.581Z,29.23
2023-08-23T17:55:26.664Z,14.05
2023-08-23T17:57:53.558Z,17.02
2023-08-23T18:00:21.519Z,13.45
2023-08-23T18:02:48.753Z,13.10
2023-08-23T18:05:16.180Z,14.18
2023-08-23T18:07:45.570Z,13.77
2023-08-23T18:10:12.842Z,14.20
2023-08-23T18:12:40.115Z,13.45
2023-08-23T18:15:07.813Z,12.88
2023-08-23T18:17:34.675Z,13.80
2023-08-23T18:20:01.642Z,14.40
2023-08-23T18:22:28.536Z,14.43
2023-08-23T18:24:55.393Z,14.30
2023-08-23T18:27:23.229Z,14.65
2023-08-23T18:29:50.502Z,13.20
2023-08-23T18:32:17.430Z,14.25
2023-08-23T18:34:44.553Z,14.23
2023-08-23T18:37:11.409Z,13.13
2023-08-23T18:39:38.362Z,15.07
2023-08-23T18:42:06.422Z,14.27
2023-08-23T18:44:33.264Z,14.32
2023-08-23T18:47:00.090Z,13.70
2023-08-23T18:49:26.972Z,15.18
2023-08-23T18:51:53.849Z,14.27
2023-08-23T18:54:20.816Z,15.43
2023-08-23T18:56:47.742Z,16.00
2023-08-23T18:59:14.618Z,14.82
2023-08-23T19:01:41.869Z,15.35
2023-08-23T19:04:09.093Z,14.82
2023-08-23T19:06:36.381Z,15.68
2023-08-23T19:09:03.342Z,17.83
2023-08-23T19:11:30.226Z,16.45
2023-08-23T19:13:57.067Z,15.48
2023-08-23T19:16:23.959Z,15.80
2023-08-23T19:18:51.140Z,14.02
2023-08-23T19:21:17.988Z,13.77
2023-08-23T19:23:44.941Z,14.65
2023-08-23T19:26:11.894Z,14.02
2023-08-23T19:28:38.753Z,13.73
2023-08-23T19:31:05.577Z,14.63
2023-08-23T19:33:32.550Z,14.93
2023-08-23T19:36:01.389Z,13.77
2023-08-23T19:38:28.301Z,16.70
2023-08-23T19:40:55.250Z,16.02
2023-08-23T19:43:22.921Z,14.85
2023-08-23T19:45:50.222Z,17.02
2023-08-23T19:50:47.605Z,29.13
2023-08-23T19:53:14.510Z,15.82
2023-08-23T19:55:41.465Z,14.45
2023-08-23T19:58:09.184Z,13.57
2023-08-23T20:04:40.499Z,14.30
2023-08-23T20:07:07.424Z,14.77
2023-08-23T20:09:34.207Z,14.77
2023-08-23T20:12:01.271Z,14.55
2023-08-23T20:14:30.867Z,14.52
2023-08-23T20:16:58.053Z,14.73
2023-08-23T20:19:25.064Z,15.77
2023-08-23T20:21:52.104Z,14.43
2023-08-23T20:24:18.971Z,15.88
2023-08-23T20:26:45.997Z,14.95
2023-08-23T20:29:15.813Z,14.85
2023-08-23T20:31:42.761Z,14.32
2023-08-23T20:34:10.069Z,14.32
2023-08-23T20:36:38.091Z,14.77
2023-08-23T20:39:05.973Z,14.50
2023-08-23T20:41:33.619Z,15.25
2023-08-23T20:44:00.492Z,16.15
2023-08-23T20:46:27.506Z,15.63
2023-08-23T20:48:54.494Z,16.40
2023-08-23T20:51:21.374Z,16.67
2023-08-23T20:53:48.258Z,16.63
2023-08-23T20:56:16.428Z,15.80
2023-08-23T20:58:43.454Z,16.73
2023-08-23T21:01:12.551Z,16.73
2023-08-23T21:03:40.727Z,16.92
2023-08-23T21:06:07.651Z,16.30
2023-08-23T21:08:34.958Z,17.55
2023-08-23T21:11:01.929Z,16.52
2023-08-23T21:13:29.388Z,18.10
2023-08-23T21:15:57.693Z,16.80
2023-08-23T21:18:25.844Z,16.55
2023-08-23T21:20:53.798Z,17.95
2023-08-23T21:23:21.014Z,17.45
2023-08-23T21:25:48.084Z,17.23
2023-08-23T21:28:17.934Z,17.30
2023-08-23T21:30:48.610Z,27.13
2023-08-23T21:33:16.653Z,26.10
2023-08-23T21:35:45.031Z,19.02
2023-08-23T21:38:12.693Z,18.30
2023-08-23T21:40:39.651Z,17.63
2023-08-23T21:43:06.573Z,16.35
2023-08-23T21:45:33.650Z,17.02
2023-08-23T21:48:01.471Z,17.75
2023-08-23T21:50:28.348Z,15.75
2023-08-23T21:52:55.229Z,15.88
2023-08-23T21:55:22.175Z,16.88
2023-08-23T21:57:49.200Z,17.80
2023-08-23T22:00:16.708Z,16.65
2023-08-23T22:02:43.741Z,16.55
2023-08-23T22:05:11.812Z,15.90
2023-08-23T22:07:38.694Z,16.00
2023-08-23T22:10:06.139Z,17.35
2023-08-23T22:12:33.096Z,16.77
2023-08-23T22:14:59.955Z,18.30
2023-08-23T22:17:26.820Z,16.40
2023-08-23T22:19:53.670Z,18.50
2023-08-23T22:22:20.601Z,16.48
2023-08-23T22:24:47.491Z,16.42
2023-08-23T22:27:14.319Z,16.70
2023-08-23T22:29:41.206Z,16.52
2023-08-23T22:32:08.085Z,15.90
2023-08-23T22:34:35.053Z,16.27
2023-08-23T22:37:02.006Z,15.80
2023-08-23T22:39:29.049Z,16.45
2023-08-23T22:41:56.039Z,15.65
2023-08-23T22:44:22.926Z,16.30
2023-08-23T22:46:50.057Z,16.45
2023-08-23T22:49:19.338Z,15.30
2023-08-23T22:51:46.426Z,16.67
2023-08-23T22:54:13.543Z,15.90
2023-08-23T22:56:40.404Z,16.65
2023-08-23T22:59:09.900Z,15.38
2023-08-23T23:01:39.137Z,15.82
2023-08-23T23:04:06.007Z,14.82
2023-08-23T23:06:32.900Z,14.63
2023-08-23T23:08:59.827Z,14.95
2023-08-23T23:11:26.875Z,14.98
2023-08-23T23:13:54.732Z,15.15
2023-08-23T23:16:21.653Z,16.17
2023-08-23T23:18:48.984Z,14.30
2023-08-23T23:21:15.949Z,17.80
2023-08-23T23:23:42.935Z,17.77
2023-08-23T23:26:12.239Z,19.00
2023-08-23T23:28:39.394Z,18.02
2023-08-23T23:31:07.417Z,19.30
2023-08-23T23:33:34.785Z,18.15
2023-08-23T23:36:01.716Z,17.75
2023-08-23T23:38:28.697Z,18.27
2023-08-23T23:40:57.970Z,18.60
2023-08-23T23:43:24.849Z,17.25
2023-08-23T23:45:51.933Z,17.20
2023-08-23T23:48:18.798Z,18.42
2023-08-23T23:50:48.828Z,17.98
2023-08-23T23:53:15.807Z,18.15
2023-08-23T23:55:42.785Z,17.80
2023-08-23T23:58:09.653Z,16.85
